sensor_id;sensor_type;location;lat;lon;timestamp;temperature;humidity
1063;DHT22;520;50.932;6.962;2023-04-03T00:00:53;7.80;88.10
1063;DHT22;520;50.932;6.962;2023-04-03T00:03:55;7.70;88.40
1063;DHT22;520;50.932;6.962;2023-04-03T00:06:43;8.00;89.70
1063;DHT22;520;50.932;6.962;2023-04-03T00:09:21;8.00;88.70
1063;DHT22;520;50.932;6.962;2023-04-03T00:16:10;7.80;89.80
1063;DHT22;520;50.932;6.962;2023-04-03T00:19:22;7.80;90.20
1063;DHT22;520;50.932;6.962;2023-04-03T00:29:06;7.80;90.60
1063;DHT22;520;50.932;6.962;2023-04-03T00:35:56;7.70;91.00
1063;DHT22;520;50.932;6.962;2023-04-03T00:38:39;7.80;91.30
1063;DHT22;520;50.932;6.962;2023-04-03T00:42:16;7.70;91.30
1063;DHT22;520;50.932;6.962;2023-04-03T00:47:33;7.50;91.30
1063;DHT22;520;50.932;6.962;2023-04-03T00:50:30;7.50;91.70
1063;DHT22;520;50.932;6.962;2023-04-03T00:54:07;7.40;91.80
1063;DHT22;520;50.932;6.962;2023-04-03T00:56:46;7.40;92.00
1063;DHT22;520;50.932;6.962;2023-04-03T00:59:46;7.50;91.90
1063;DHT22;520;50.932;6.962;2023-04-03T01:02:27;7.40;91.60
1063;DHT22;520;50.932;6.962;2023-04-03T01:08:58;7.30;90.10
1063;DHT22;520;50.932;6.962;2023-04-03T01:12:29;7.10;90.30
1063;DHT22;520;50.932;6.962;2023-04-03T01:15:36;7.10;90.20
1063;DHT22;520;50.932;6.962;2023-04-03T01:28:11;6.90;90.10
1063;DHT22;520;50.932;6.962;2023-04-03T01:34:31;6.90;90.60
1063;DHT22;520;50.932;6.962;2023-04-03T01:37:24;7.10;89.90
1063;DHT22;520;50.932;6.962;2023-04-03T01:39:58;7.10;88.80
1063;DHT22;520;50.932;6.962;2023-04-03T01:42:31;7.10;88.80
1063;DHT22;520;50.932;6.962;2023-04-03T01:45:59;7.20;88.50
1063;DHT22;520;50.932;6.962;2023-04-03T01:49:24;7.10;88.80
1063;DHT22;520;50.932;6.962;2023-04-03T01:52:33;6.90;89.90
1063;DHT22;520;50.932;6.962;2023-04-03T01:56:28;6.80;90.30
1063;DHT22;520;50.932;6.962;2023-04-03T01:59:42;6.90;90.20
1063;DHT22;520;50.932;6.962;2023-04-03T02:03:05;6.80;90.20
1063;DHT22;520;50.932;6.962;2023-04-03T02:05:56;6.80;90.50
1063;DHT22;520;50.932;6.962;2023-04-03T02:08:48;6.80;91.00
1063;DHT22;520;50.932;6.962;2023-04-03T02:11:40;6.80;91.40
1063;DHT22;520;50.932;6.962;2023-04-03T02:14:16;6.80;91.90
1063;DHT22;520;50.932;6.962;2023-04-03T02:17:14;7.00;92.00
1063;DHT22;520;50.932;6.962;2023-04-03T02:20:07;6.80;91.90
1063;DHT22;520;50.932;6.962;2023-04-03T02:26:38;6.70;92.20
1063;DHT22;520;50.932;6.962;2023-04-03T02:30:00;7.00;92.00
1063;DHT22;520;50.932;6.962;2023-04-03T02:33:14;6.70;91.90
1063;DHT22;520;50.932;6.962;2023-04-03T02:36:10;6.60;92.40
1063;DHT22;520;50.932;6.962;2023-04-03T02:39:37;6.40;92.60
1063;DHT22;520;50.932;6.962;2023-04-03T02:45:46;6.50;92.40
1063;DHT22;520;50.932;6.962;2023-04-03T02:49:09;6.50;92.60
1063;DHT22;520;50.932;6.962;2023-04-03T02:54:54;6.50;92.70
1063;DHT22;520;50.932;6.962;2023-04-03T02:58:27;6.60;92.50
1063;DHT22;520;50.932;6.962;2023-04-03T03:01:36;6.60;92.40
1063;DHT22;520;50.932;6.962;2023-04-03T03:04:13;6.40;92.60
1063;DHT22;520;50.932;6.962;2023-04-03T03:07:20;6.50;92.90
1063;DHT22;520;50.932;6.962;2023-04-03T03:10:00;6.40;92.70
1063;DHT22;520;50.932;6.962;2023-04-03T03:12:48;6.40;92.90
1063;DHT22;520;50.932;6.962;2023-04-03T03:16:23;6.30;93.10
1063;DHT22;520;50.932;6.962;2023-04-03T03:19:09;6.20;93.00
1063;DHT22;520;50.932;6.962;2023-04-03T03:22:03;6.40;93.10
1063;DHT22;520;50.932;6.962;2023-04-03T03:24:53;6.50;92.70
1063;DHT22;520;50.932;6.962;2023-04-03T03:27:54;6.20;92.40
1063;DHT22;520;50.932;6.962;2023-04-03T03:30:50;6.20;92.50
1063;DHT22;520;50.932;6.962;2023-04-03T03:33:51;6.10;92.70
1063;DHT22;520;50.932;6.962;2023-04-03T03:39:34;6.20;92.60
1063;DHT22;520;50.932;6.962;2023-04-03T03:42:07;6.20;92.20
1063;DHT22;520;50.932;6.962;2023-04-03T03:45:24;6.00;91.80
1063;DHT22;520;50.932;6.962;2023-04-03T03:48:23;6.10;92.10
1063;DHT22;520;50.932;6.962;2023-04-03T03:51:10;6.20;92.20
1063;DHT22;520;50.932;6.962;2023-04-03T03:54:37;6.20;92.10
1063;DHT22;520;50.932;6.962;2023-04-03T03:57:41;6.10;92.30
1063;DHT22;520;50.932;6.962;2023-04-03T04:00:34;6.10;92.30
1063;DHT22;520;50.932;6.962;2023-04-03T04:03:43;6.00;92.30
1063;DHT22;520;50.932;6.962;2023-04-03T04:13:33;5.60;92.20
1063;DHT22;520;50.932;6.962;2023-04-03T04:19:50;5.70;92.20
1063;DHT22;520;50.932;6.962;2023-04-03T04:22:44;5.60;92.50
1063;DHT22;520;50.932;6.962;2023-04-03T04:25:56;5.50;92.80
1063;DHT22;520;50.932;6.962;2023-04-03T04:28:52;5.60;92.80
1063;DHT22;520;50.932;6.962;2023-04-03T04:31:36;5.80;92.20
1063;DHT22;520;50.932;6.962;2023-04-03T04:35:15;5.70;92.00
1063;DHT22;520;50.932;6.962;2023-04-03T04:37:57;5.50;92.20
1063;DHT22;520;50.932;6.962;2023-04-03T04:41:16;5.50;92.40
1063;DHT22;520;50.932;6.962;2023-04-03T04:44:23;5.40;92.30
1063;DHT22;520;50.932;6.962;2023-04-03T04:51:34;5.50;92.90
1063;DHT22;520;50.932;6.962;2023-04-03T04:58:21;5.50;93.00
1063;DHT22;520;50.932;6.962;2023-04-03T05:07:36;5.40;92.60
1063;DHT22;520;50.932;6.962;2023-04-03T05:10:09;5.30;93.00
1063;DHT22;520;50.932;6.962;2023-04-03T05:16:52;5.50;93.30
1063;DHT22;520;50.932;6.962;2023-04-03T05:20:04;5.50;92.90
1063;DHT22;520;50.932;6.962;2023-04-03T05:23:05;5.30;92.90
1063;DHT22;520;50.932;6.962;2023-04-03T05:25:55;5.40;92.80
1063;DHT22;520;50.932;6.962;2023-04-03T05:32:49;5.40;93.10
1063;DHT22;520;50.932;6.962;2023-04-03T05:35:52;5.50;92.60
1063;DHT22;520;50.932;6.962;2023-04-03T05:38:51;5.40;92.40
1063;DHT22;520;50.932;6.962;2023-04-03T05:41:43;5.40;92.60
1063;DHT22;520;50.932;6.962;2023-04-03T05:48:11;5.40;92.80
1063;DHT22;520;50.932;6.962;2023-04-03T05:50:49;5.60;93.00
1063;DHT22;520;50.932;6.962;2023-04-03T05:53:35;5.70;92.80
1063;DHT22;520;50.932;6.962;2023-04-03T05:56:21;5.70;92.50
1063;DHT22;520;50.932;6.962;2023-04-03T05:59:20;6.40;92.70
1063;DHT22;520;50.932;6.962;2023-04-03T06:02:21;7.10;90.40
1063;DHT22;520;50.932;6.962;2023-04-03T06:09:31;7.80;90.30
1063;DHT22;520;50.932;6.962;2023-04-03T06:12:27;8.70;85.20
1063;DHT22;520;50.932;6.962;2023-04-03T06:18:18;12.20;77.90
1063;DHT22;520;50.932;6.962;2023-04-03T06:21:21;14.50;64.00
1063;DHT22;520;50.932;6.962;2023-04-03T06:23:55;16.40;57.60
1063;DHT22;520;50.932;6.962;2023-04-03T06:31:05;18.50;50.50
1063;DHT22;520;50.932;6.962;2023-04-03T06:34:15;19.20;47.00
1063;DHT22;520;50.932;6.962;2023-04-03T06:36:59;19.50;46.90
1063;DHT22;520;50.932;6.962;2023-04-03T06:43:17;20.50;43.20
1063;DHT22;520;50.932;6.962;2023-04-03T06:45:50;21.10;41.40
1063;DHT22;520;50.932;6.962;2023-04-03T06:49:02;21.20;40.90
1063;DHT22;520;50.932;6.962;2023-04-03T06:52:08;21.30;40.00
1063;DHT22;520;50.932;6.962;2023-04-03T06:58:34;20.80;38.80
1063;DHT22;520;50.932;6.962;2023-04-03T07:01:37;20.50;39.60
1063;DHT22;520;50.932;6.962;2023-04-03T07:04:42;18.50;39.90
1063;DHT22;520;50.932;6.962;2023-04-03T07:07:52;17.80;43.30
1063;DHT22;520;50.932;6.962;2023-04-03T07:10:43;16.60;42.30
1063;DHT22;520;50.932;6.962;2023-04-03T07:14:03;14.90;45.80
1063;DHT22;520;50.932;6.962;2023-04-03T07:24:23;20.70;40.60
1063;DHT22;520;50.932;6.962;2023-04-03T07:28:03;21.40;38.10
1063;DHT22;520;50.932;6.962;2023-04-03T07:31:14;21.80;37.70
1063;DHT22;520;50.932;6.962;2023-04-03T07:34:57;22.20;36.70
1063;DHT22;520;50.932;6.962;2023-04-03T07:38:01;22.50;35.30
1063;DHT22;520;50.932;6.962;2023-04-03T07:41:27;22.60;35.90
1063;DHT22;520;50.932;6.962;2023-04-03T07:44:36;23.30;35.50
1063;DHT22;520;50.932;6.962;2023-04-03T07:47:28;23.30;34.30
1063;DHT22;520;50.932;6.962;2023-04-03T07:50:50;23.40;33.70
1063;DHT22;520;50.932;6.962;2023-04-03T07:53:33;21.90;33.50
1063;DHT22;520;50.932;6.962;2023-04-03T08:03:33;23.30;33.60
1063;DHT22;520;50.932;6.962;2023-04-03T08:12:36;22.70;32.60
1063;DHT22;520;50.932;6.962;2023-04-03T08:15:23;22.70;33.50
1063;DHT22;520;50.932;6.962;2023-04-03T08:18:30;22.70;33.80
1063;DHT22;520;50.932;6.962;2023-04-03T08:21:40;23.70;33.10
1063;DHT22;520;50.932;6.962;2023-04-03T08:28:25;20.30;31.90
1063;DHT22;520;50.932;6.962;2023-04-03T08:31:19;20.20;33.50
1063;DHT22;520;50.932;6.962;2023-04-03T08:34:22;20.50;32.30
1063;DHT22;520;50.932;6.962;2023-04-03T08:37:27;18.60;32.90
1063;DHT22;520;50.932;6.962;2023-04-03T08:40:25;18.90;34.60
1063;DHT22;520;50.932;6.962;2023-04-03T08:43:50;18.00;33.90
1063;DHT22;520;50.932;6.962;2023-04-03T08:50:26;18.00;34.60
1063;DHT22;520;50.932;6.962;2023-04-03T08:53:43;17.90;34.30
1063;DHT22;520;50.932;6.962;2023-04-03T08:57:11;17.60;34.90
1063;DHT22;520;50.932;6.962;2023-04-03T09:03:33;12.80;40.60
1063;DHT22;520;50.932;6.962;2023-04-03T09:06:26;11.80;42.40
1063;DHT22;520;50.932;6.962;2023-04-03T09:12:46;11.00;45.00
1063;DHT22;520;50.932;6.962;2023-04-03T09:15:47;13.10;43.90
1063;DHT22;520;50.932;6.962;2023-04-03T09:18:48;15.50;40.20
1063;DHT22;520;50.932;6.962;2023-04-03T09:21:49;16.80;37.20
1063;DHT22;520;50.932;6.962;2023-04-03T09:28:18;17.10;36.00
1063;DHT22;520;50.932;6.962;2023-04-03T09:34:32;18.00;35.00
1063;DHT22;520;50.932;6.962;2023-04-03T09:41:42;17.70;33.30
1063;DHT22;520;50.932;6.962;2023-04-03T09:49:04;19.40;32.80
1063;DHT22;520;50.932;6.962;2023-04-03T09:52:23;18.70;30.40
1063;DHT22;520;50.932;6.962;2023-04-03T09:55:25;18.00;31.10
1063;DHT22;520;50.932;6.962;2023-04-03T09:58:04;17.20;29.20
1063;DHT22;520;50.932;6.962;2023-04-03T10:01:34;16.30;31.00
1063;DHT22;520;50.932;6.962;2023-04-03T10:08:42;17.60;31.60
1063;DHT22;520;50.932;6.962;2023-04-03T10:11:37;17.30;30.50
1063;DHT22;520;50.932;6.962;2023-04-03T10:21:49;17.80;31.90
1063;DHT22;520;50.932;6.962;2023-04-03T10:38:39;17.60;29.90
1063;DHT22;520;50.932;6.962;2023-04-03T10:48:47;17.60;28.30
1063;DHT22;520;50.932;6.962;2023-04-03T11:05:47;16.40;28.20
1063;DHT22;520;50.932;6.962;2023-04-03T11:08:45;15.50;28.40
1063;DHT22;520;50.932;6.962;2023-04-03T11:11:46;15.50;29.20
1063;DHT22;520;50.932;6.962;2023-04-03T11:14:55;15.80;29.10
1063;DHT22;520;50.932;6.962;2023-04-03T11:18:46;16.30;29.10
1063;DHT22;520;50.932;6.962;2023-04-03T11:21:16;16.20;29.40
1063;DHT22;520;50.932;6.962;2023-04-03T11:24:31;16.50;29.60
1063;DHT22;520;50.932;6.962;2023-04-03T11:27:26;16.80;29.40
1063;DHT22;520;50.932;6.962;2023-04-03T11:34:25;17.00;31.50
1063;DHT22;520;50.932;6.962;2023-04-03T11:40:42;17.70;29.40
1063;DHT22;520;50.932;6.962;2023-04-03T11:43:26;17.70;28.20
1063;DHT22;520;50.932;6.962;2023-04-03T11:46:10;17.40;28.90
1063;DHT22;520;50.932;6.962;2023-04-03T11:48:58;17.50;28.70
1063;DHT22;520;50.932;6.962;2023-04-03T11:51:45;17.70;27.90
1063;DHT22;520;50.932;6.962;2023-04-03T11:54:42;17.80;28.60
1063;DHT22;520;50.932;6.962;2023-04-03T12:01:03;17.30;28.30
1063;DHT22;520;50.932;6.962;2023-04-03T12:07:20;17.30;28.20
1063;DHT22;520;50.932;6.962;2023-04-03T12:10:25;17.20;28.20
1063;DHT22;520;50.932;6.962;2023-04-03T12:13:24;16.90;28.80
1063;DHT22;520;50.932;6.962;2023-04-03T12:16:05;16.70;28.00
1063;DHT22;520;50.932;6.962;2023-04-03T12:18:56;16.60;27.80
1063;DHT22;520;50.932;6.962;2023-04-03T12:28:00;17.30;27.90
1063;DHT22;520;50.932;6.962;2023-04-03T12:31:08;17.60;27.70
1063;DHT22;520;50.932;6.962;2023-04-03T12:40:30;17.30;27.80
1063;DHT22;520;50.932;6.962;2023-04-03T12:47:34;17.70;28.30
1063;DHT22;520;50.932;6.962;2023-04-03T12:50:31;17.40;28.20
1063;DHT22;520;50.932;6.962;2023-04-03T12:53:28;17.60;28.60
1063;DHT22;520;50.932;6.962;2023-04-03T12:56:27;17.60;28.70
1063;DHT22;520;50.932;6.962;2023-04-03T13:03:04;18.00;28.10
1063;DHT22;520;50.932;6.962;2023-04-03T13:05:59;18.40;29.00
1063;DHT22;520;50.932;6.962;2023-04-03T13:12:29;18.30;27.60
1063;DHT22;520;50.932;6.962;2023-04-03T13:15:27;17.90;27.80
1063;DHT22;520;50.932;6.962;2023-04-03T13:21:38;18.20;27.70
1063;DHT22;520;50.932;6.962;2023-04-03T13:24:24;18.20;28.10
1063;DHT22;520;50.932;6.962;2023-04-03T13:27:29;18.90;27.70
1063;DHT22;520;50.932;6.962;2023-04-03T13:30:46;18.30;27.70
1063;DHT22;520;50.932;6.962;2023-04-03T13:37:19;17.80;28.50
1063;DHT22;520;50.932;6.962;2023-04-03T13:40:14;18.20;28.40
1063;DHT22;520;50.932;6.962;2023-04-03T13:43:42;18.20;27.90
1063;DHT22;520;50.932;6.962;2023-04-03T13:46:44;18.20;28.00
1063;DHT22;520;50.932;6.962;2023-04-03T13:49:40;17.60;28.70
1063;DHT22;520;50.932;6.962;2023-04-03T13:58:52;17.20;29.60
1063;DHT22;520;50.932;6.962;2023-04-03T14:01:37;17.40;29.60
1063;DHT22;520;50.932;6.962;2023-04-03T14:04:52;17.60;28.90
1063;DHT22;520;50.932;6.962;2023-04-03T14:07:39;17.10;28.40
1063;DHT22;520;50.932;6.962;2023-04-03T14:10:19;17.10;29.10
1063;DHT22;520;50.932;6.962;2023-04-03T14:13:22;16.90;29.20
1063;DHT22;520;50.932;6.962;2023-04-03T14:16:17;16.80;29.50
1063;DHT22;520;50.932;6.962;2023-04-03T14:22:43;17.20;30.30
1063;DHT22;520;50.932;6.962;2023-04-03T14:25:28;17.00;29.80
1063;DHT22;520;50.932;6.962;2023-04-03T14:28:28;16.70;30.00
1063;DHT22;520;50.932;6.962;2023-04-03T14:31:35;16.90;31.10
1063;DHT22;520;50.932;6.962;2023-04-03T14:34:22;16.70;30.50
1063;DHT22;520;50.932;6.962;2023-04-03T14:40:15;16.50;30.90
1063;DHT22;520;50.932;6.962;2023-04-03T14:42:48;16.50;31.50
1063;DHT22;520;50.932;6.962;2023-04-03T14:45:56;16.40;32.40
1063;DHT22;520;50.932;6.962;2023-04-03T14:48:38;15.80;31.10
1063;DHT22;520;50.932;6.962;2023-04-03T14:51:27;15.30;31.60
1063;DHT22;520;50.932;6.962;2023-04-03T14:54:41;15.00;33.10
1063;DHT22;520;50.932;6.962;2023-04-03T15:00:54;15.10;34.20
1063;DHT22;520;50.932;6.962;2023-04-03T15:03:42;15.30;33.50
1063;DHT22;520;50.932;6.962;2023-04-03T15:06:21;15.40;32.90
1063;DHT22;520;50.932;6.962;2023-04-03T15:09:02;15.60;33.00
1063;DHT22;520;50.932;6.962;2023-04-03T15:11:40;15.50;31.70
1063;DHT22;520;50.932;6.962;2023-04-03T15:14:22;15.50;32.60
1063;DHT22;520;50.932;6.962;2023-04-03T15:17:25;15.50;32.00
1063;DHT22;520;50.932;6.962;2023-04-03T15:20:22;15.50;32.30
1063;DHT22;520;50.932;6.962;2023-04-03T15:23:03;15.80;33.20
1063;DHT22;520;50.932;6.962;2023-04-03T15:25:35;15.70;32.70
1063;DHT22;520;50.932;6.962;2023-04-03T15:28:42;15.80;33.20
1063;DHT22;520;50.932;6.962;2023-04-03T15:31:34;15.60;33.30
1063;DHT22;520;50.932;6.962;2023-04-03T15:34:24;15.60;33.40
1063;DHT22;520;50.932;6.962;2023-04-03T15:37:03;15.30;32.10
1063;DHT22;520;50.932;6.962;2023-04-03T15:39:36;15.10;33.20
1063;DHT22;520;50.932;6.962;2023-04-03T15:42:18;15.10;33.60
1063;DHT22;520;50.932;6.962;2023-04-03T15:44:59;15.00;33.10
1063;DHT22;520;50.932;6.962;2023-04-03T15:47:43;14.80;33.50
1063;DHT22;520;50.932;6.962;2023-04-03T15:50:23;14.80;33.40
1063;DHT22;520;50.932;6.962;2023-04-03T15:52:58;14.40;32.20
1063;DHT22;520;50.932;6.962;2023-04-03T15:55:26;14.40;33.10
1063;DHT22;520;50.932;6.962;2023-04-03T15:58:02;14.50;33.50
1063;DHT22;520;50.932;6.962;2023-04-03T16:04:27;14.90;33.60
1063;DHT22;520;50.932;6.962;2023-04-03T16:07:12;15.00;34.00
1063;DHT22;520;50.932;6.962;2023-04-03T16:09:47;15.10;34.30
1063;DHT22;520;50.932;6.962;2023-04-03T16:12:29;14.80;34.10
1063;DHT22;520;50.932;6.962;2023-04-03T16:15:21;14.70;35.20
1063;DHT22;520;50.932;6.962;2023-04-03T16:18:12;14.60;35.50
1063;DHT22;520;50.932;6.962;2023-04-03T16:21:24;14.50;35.10
1063;DHT22;520;50.932;6.962;2023-04-03T16:24:00;14.40;34.60
1063;DHT22;520;50.932;6.962;2023-04-03T16:26:31;14.00;34.40
1063;DHT22;520;50.932;6.962;2023-04-03T16:29:01;13.80;34.60
1063;DHT22;520;50.932;6.962;2023-04-03T16:31:37;13.60;35.10
1063;DHT22;520;50.932;6.962;2023-04-03T16:34:31;13.40;36.00
1063;DHT22;520;50.932;6.962;2023-04-03T16:37:17;13.40;36.00
1063;DHT22;520;50.932;6.962;2023-04-03T16:39:53;13.50;36.70
1063;DHT22;520;50.932;6.962;2023-04-03T16:42:41;13.40;35.60
1063;DHT22;520;50.932;6.962;2023-04-03T16:45:32;13.10;35.30
1063;DHT22;520;50.932;6.962;2023-04-03T16:48:24;13.20;36.30
1063;DHT22;520;50.932;6.962;2023-04-03T16:51:01;13.10;35.90
1063;DHT22;520;50.932;6.962;2023-04-03T16:53:36;13.00;36.20
1063;DHT22;520;50.932;6.962;2023-04-03T16:56:11;12.90;36.50
1063;DHT22;520;50.932;6.962;2023-04-03T16:58:51;12.90;36.30
1063;DHT22;520;50.932;6.962;2023-04-03T17:01:27;12.80;36.90
1063;DHT22;520;50.932;6.962;2023-04-03T17:04:13;12.90;38.30
1063;DHT22;520;50.932;6.962;2023-04-03T17:07:21;12.90;37.20
1063;DHT22;520;50.932;6.962;2023-04-03T17:10:16;12.70;37.80
1063;DHT22;520;50.932;6.962;2023-04-03T17:12:54;12.50;38.90
1063;DHT22;520;50.932;6.962;2023-04-03T17:18:56;12.50;40.20
1063;DHT22;520;50.932;6.962;2023-04-03T17:21:40;12.50;39.60
1063;DHT22;520;50.932;6.962;2023-04-03T17:24:16;12.50;40.20
1063;DHT22;520;50.932;6.962;2023-04-03T17:26:49;12.60;40.10
1063;DHT22;520;50.932;6.962;2023-04-03T17:29:43;12.60;39.60
1063;DHT22;520;50.932;6.962;2023-04-03T17:33:05;12.40;40.00
1063;DHT22;520;50.932;6.962;2023-04-03T17:36:20;12.30;39.80
1063;DHT22;520;50.932;6.962;2023-04-03T17:39:24;12.30;40.10
1063;DHT22;520;50.932;6.962;2023-04-03T17:43:19;12.30;40.60
1063;DHT22;520;50.932;6.962;2023-04-03T17:46:19;12.20;40.10
1063;DHT22;520;50.932;6.962;2023-04-03T17:49:50;12.10;39.50
1063;DHT22;520;50.932;6.962;2023-04-03T17:52:35;12.10;40.60
1063;DHT22;520;50.932;6.962;2023-04-03T17:55:56;12.10;40.90
1063;DHT22;520;50.932;6.962;2023-04-03T17:59:08;12.00;40.50
1063;DHT22;520;50.932;6.962;2023-04-03T18:01:58;11.90;40.20
1063;DHT22;520;50.932;6.962;2023-04-03T18:08:36;11.90;41.30
1063;DHT22;520;50.932;6.962;2023-04-03T18:11:55;11.80;41.50
1063;DHT22;520;50.932;6.962;2023-04-03T18:15:14;11.80;41.30
1063;DHT22;520;50.932;6.962;2023-04-03T18:18:38;11.70;41.90
1063;DHT22;520;50.932;6.962;2023-04-03T18:22:20;11.50;41.30
1063;DHT22;520;50.932;6.962;2023-04-03T18:28:46;11.50;44.10
1063;DHT22;520;50.932;6.962;2023-04-03T18:31:30;11.50;43.70
1063;DHT22;520;50.932;6.962;2023-04-03T18:34:05;11.50;43.10
1063;DHT22;520;50.932;6.962;2023-04-03T18:36:40;11.40;43.10
1063;DHT22;520;50.932;6.962;2023-04-03T18:39:51;11.30;43.00
1063;DHT22;520;50.932;6.962;2023-04-03T18:45:50;11.00;44.20
1063;DHT22;520;50.932;6.962;2023-04-03T18:49:06;10.80;44.10
1063;DHT22;520;50.932;6.962;2023-04-03T18:52:01;10.70;44.00
1063;DHT22;520;50.932;6.962;2023-04-03T18:54:56;10.70;44.70
1063;DHT22;520;50.932;6.962;2023-04-03T18:57:52;10.70;44.40
1063;DHT22;520;50.932;6.962;2023-04-03T19:01:03;10.80;44.70
1063;DHT22;520;50.932;6.962;2023-04-03T19:04:16;10.60;43.80
1063;DHT22;520;50.932;6.962;2023-04-03T19:07:12;10.40;44.20
1063;DHT22;520;50.932;6.962;2023-04-03T19:10:02;10.40;44.20
1063;DHT22;520;50.932;6.962;2023-04-03T19:12:39;10.30;44.10
1063;DHT22;520;50.932;6.962;2023-04-03T19:15:15;10.10;43.90
1063;DHT22;520;50.932;6.962;2023-04-03T19:17:58;10.20;44.50
1063;DHT22;520;50.932;6.962;2023-04-03T19:21:00;10.20;44.50
1063;DHT22;520;50.932;6.962;2023-04-03T19:30:52;10.00;45.80
1063;DHT22;520;50.932;6.962;2023-04-03T19:33:49;10.10;46.00
1063;DHT22;520;50.932;6.962;2023-04-03T19:36:36;10.10;45.50
1063;DHT22;520;50.932;6.962;2023-04-03T19:39:39;10.10;45.70
1063;DHT22;520;50.932;6.962;2023-04-03T19:42:58;9.90;46.60
1063;DHT22;520;50.932;6.962;2023-04-03T19:45:51;10.00;46.20
1063;DHT22;520;50.932;6.962;2023-04-03T19:48:45;9.90;46.90
1063;DHT22;520;50.932;6.962;2023-04-03T19:51:31;9.90;47.40
1063;DHT22;520;50.932;6.962;2023-04-03T19:54:18;9.80;47.30
1063;DHT22;520;50.932;6.962;2023-04-03T19:57:03;9.90;47.40
1063;DHT22;520;50.932;6.962;2023-04-03T19:59:56;9.80;48.20
1063;DHT22;520;50.932;6.962;2023-04-03T20:02:45;9.70;47.60
1063;DHT22;520;50.932;6.962;2023-04-03T20:05:26;9.60;47.30
1063;DHT22;520;50.932;6.962;2023-04-03T20:08:31;9.50;47.70
1063;DHT22;520;50.932;6.962;2023-04-03T20:11:12;9.60;47.90
1063;DHT22;520;50.932;6.962;2023-04-03T20:14:00;9.50;47.70
1063;DHT22;520;50.932;6.962;2023-04-03T20:17:00;9.30;47.80
1063;DHT22;520;50.932;6.962;2023-04-03T20:19:39;9.30;47.90
1063;DHT22;520;50.932;6.962;2023-04-03T20:22:38;9.20;48.80
1063;DHT22;520;50.932;6.962;2023-04-03T20:25:12;9.20;47.90
1063;DHT22;520;50.932;6.962;2023-04-03T20:28:06;9.20;48.30
1063;DHT22;520;50.932;6.962;2023-04-03T20:30:38;9.30;49.00
1063;DHT22;520;50.932;6.962;2023-04-03T20:33:22;9.10;48.20
1063;DHT22;520;50.932;6.962;2023-04-03T20:36:25;9.10;48.00
1063;DHT22;520;50.932;6.962;2023-04-03T20:38:59;9.00;48.90
1063;DHT22;520;50.932;6.962;2023-04-03T20:41:30;9.00;48.90
1063;DHT22;520;50.932;6.962;2023-04-03T20:44:06;9.00;49.10
1063;DHT22;520;50.932;6.962;2023-04-03T20:46:37;8.80;49.20
1063;DHT22;520;50.932;6.962;2023-04-03T20:49:18;8.90;49.40
1063;DHT22;520;50.932;6.962;2023-04-03T20:51:45;8.90;49.30
1063;DHT22;520;50.932;6.962;2023-04-03T20:54:11;8.90;49.80
1063;DHT22;520;50.932;6.962;2023-04-03T20:56:38;8.90;49.50
1063;DHT22;520;50.932;6.962;2023-04-03T21:01:57;8.80;49.50
1063;DHT22;520;50.932;6.962;2023-04-03T21:04:50;8.70;49.50
1063;DHT22;520;50.932;6.962;2023-04-03T21:19:22;8.60;49.70
1063;DHT22;520;50.932;6.962;2023-04-03T21:22:01;8.60;50.00
1063;DHT22;520;50.932;6.962;2023-04-03T21:24:30;8.50;49.60
1063;DHT22;520;50.932;6.962;2023-04-03T21:27:11;8.40;49.50
1063;DHT22;520;50.932;6.962;2023-04-03T21:29:58;8.30;50.90
1063;DHT22;520;50.932;6.962;2023-04-03T21:32:26;8.30;50.30
1063;DHT22;520;50.932;6.962;2023-04-03T21:35:05;8.20;50.60
1063;DHT22;520;50.932;6.962;2023-04-03T21:37:36;8.30;50.60
1063;DHT22;520;50.932;6.962;2023-04-03T21:40:11;8.30;50.80
1063;DHT22;520;50.932;6.962;2023-04-03T21:42:53;8.30;50.80
1063;DHT22;520;50.932;6.962;2023-04-03T21:45:25;8.20;51.20
1063;DHT22;520;50.932;6.962;2023-04-03T21:48:00;8.10;51.40
1063;DHT22;520;50.932;6.962;2023-04-03T21:50:37;8.00;51.00
1063;DHT22;520;50.932;6.962;2023-04-03T21:53:07;8.00;51.60
1063;DHT22;520;50.932;6.962;2023-04-03T21:55:41;8.00;51.60
1063;DHT22;520;50.932;6.962;2023-04-03T21:58:51;8.10;51.40
1063;DHT22;520;50.932;6.962;2023-04-03T22:01:19;8.00;50.90
1063;DHT22;520;50.932;6.962;2023-04-03T22:04:01;7.90;51.00
1063;DHT22;520;50.932;6.962;2023-04-03T22:06:33;8.00;51.40
1063;DHT22;520;50.932;6.962;2023-04-03T22:09:05;7.90;51.30
1063;DHT22;520;50.932;6.962;2023-04-03T22:11:37;8.00;51.50
1063;DHT22;520;50.932;6.962;2023-04-03T22:14:12;8.10;51.80
1063;DHT22;520;50.932;6.962;2023-04-03T22:16:50;8.10;51.50
1063;DHT22;520;50.932;6.962;2023-04-03T22:19:29;8.10;50.80
1063;DHT22;520;50.932;6.962;2023-04-03T22:21:59;8.00;50.50
1063;DHT22;520;50.932;6.962;2023-04-03T22:24:34;8.00;50.50
1063;DHT22;520;50.932;6.962;2023-04-03T22:27:14;7.90;51.10
1063;DHT22;520;50.932;6.962;2023-04-03T22:32:39;7.70;51.50
1063;DHT22;520;50.932;6.962;2023-04-03T22:35:19;7.80;51.30
1063;DHT22;520;50.932;6.962;2023-04-03T22:38:22;7.80;51.40
1063;DHT22;520;50.932;6.962;2023-04-03T22:41:23;7.70;51.40
1063;DHT22;520;50.932;6.962;2023-04-03T22:44:14;7.70;51.60
1063;DHT22;520;50.932;6.962;2023-04-03T22:46:46;7.60;52.00
1063;DHT22;520;50.932;6.962;2023-04-03T22:49:16;7.60;52.70
1063;DHT22;520;50.932;6.962;2023-04-03T22:51:55;7.80;52.30
1063;DHT22;520;50.932;6.962;2023-04-03T22:54:29;7.70;52.10
1063;DHT22;520;50.932;6.962;2023-04-03T22:57:25;7.60;52.10
1063;DHT22;520;50.932;6.962;2023-04-03T23:00:30;7.50;52.50
1063;DHT22;520;50.932;6.962;2023-04-03T23:03:10;7.60;52.70
1063;DHT22;520;50.932;6.962;2023-04-03T23:05:49;7.50;52.00
1063;DHT22;520;50.932;6.962;2023-04-03T23:08:30;7.40;52.50
1063;DHT22;520;50.932;6.962;2023-04-03T23:11:10;7.30;52.90
1063;DHT22;520;50.932;6.962;2023-04-03T23:13:44;7.30;52.70
1063;DHT22;520;50.932;6.962;2023-04-03T23:16:16;7.30;53.20
1063;DHT22;520;50.932;6.962;2023-04-03T23:19:09;7.30;52.90
1063;DHT22;520;50.932;6.962;2023-04-03T23:21:43;7.30;53.30
1063;DHT22;520;50.932;6.962;2023-04-03T23:24:23;7.30;53.30
1063;DHT22;520;50.932;6.962;2023-04-03T23:26:56;7.10;52.80
1063;DHT22;520;50.932;6.962;2023-04-03T23:29:26;7.10;53.10
1063;DHT22;520;50.932;6.962;2023-04-03T23:32:14;7.00;53.60
1063;DHT22;520;50.932;6.962;2023-04-03T23:34:55;7.00;53.60
1063;DHT22;520;50.932;6.962;2023-04-03T23:37:30;7.00;54.20
1063;DHT22;520;50.932;6.962;2023-04-03T23:40:05;7.00;54.50
1063;DHT22;520;50.932;6.962;2023-04-03T23:43:04;7.10;54.10
1063;DHT22;520;50.932;6.962;2023-04-03T23:46:13;7.20;54.00
1063;DHT22;520;50.932;6.962;2023-04-03T23:48:43;7.10;53.50
1063;DHT22;520;50.932;6.962;2023-04-03T23:51:11;7.00;54.10
1063;DHT22;520;50.932;6.962;2023-04-03T23:53:57;7.00;54.10
1063;DHT22;520;50.932;6.962;2023-04-03T23:56:36;7.10;54.40
1063;DHT22;520;50.932;6.962;2023-04-03T23:59:20;7.10;54.30
